METAR és
SPECI
METAR LHBP 242100Z VRB01KT CAVOK 19/15 Q1012 NOSIG=
METAR LHBP 242030Z VRB01KT CAVOK 19/15 Q1012 NOSIG=
METAR LHBP 242000Z VRB03KT CAVOK 21/15 Q1011 NOSIG=
METAR LHBP 241930Z 30005KT CAVOK 20/14 Q1011 NOSIG=
METAR LHBP 241900Z 29005KT CAVOK 22/14 Q1011 NOSIG=
METAR LHBP 241830Z 29007KT CAVOK 22/14 Q1011 NOSIG=
TAF
TAF LHBP 241700Z 2418/2518 27008KT CAVOK BECMG 2419/2421 VRB03KT TEMPO 2502/2506 8000 MIFG NSC BECMG 2507/2510 22006KT 9999 SCT040 BECMG 2511/2514 CAVOK=
GAMET
Nincs érvényes távirat! 
FAHU41 LHBM 241100
LHCC GAMET VALID 241200/241800 LHBP-
BUDAPEST FIR BLW FL100
SECN 1
SIGWX: ISOL TSRA NE OF LINE N4745 E01845 - N4605 E02005
SIG CLD: ISOL CB NE OF LINE N4745 E01845 - N4605 E02005
SIGMETS APPLICABLE: NIL=
AIRMET
Nincs érvényes távirat! 
WAHU41 LHBM 050800
LHCC AIRMET 01 VALID 050800/051000 LHBP-
LHCC BUDAPEST FIR EMBD TS OBS AT 0755Z N4730 E01648
AND FCST W OF E01800 TOP FL250 MOV ENE NC=
SIGMET
Nincs érvényes távirat! 
WSHU31 LHBM 221400
LHCC SIGMET 03 VALID 221400/221700 LHBP-
LHCC BUDAPEST FIR EMBD TS OBS AND FCST NW OF LINE
LHPP-LHDC TOP FL300-340 MOV WNW WKN=
SIGMET
Vulkáni hamufelhő
Nincs érvényes távirat! 
WVHU31 LHBM 271515 CCA
LHCC SIGMET 03 VALID 271515/271800 LHBP-
LHCC BUDAPEST FIR EXERCISE VOLCEX12/01
CNL VA SIGMET 02 271200/271800
EXERCISE EXERCISE EXERCISE VOLCEX12/01=